sensor_id;sensor_type;location;lat;lon;timestamp;temperature;humidity
21035;DHT22;10676;50.848;3.272;2022-07-12T00:00:57;16.40;99.90
21035;DHT22;10676;50.848;3.272;2022-07-12T00:03:23;16.40;99.90
21035;DHT22;10676;50.848;3.272;2022-07-12T00:05:49;16.40;99.90
21035;DHT22;10676;50.848;3.272;2022-07-12T00:08:15;16.30;99.90
21035;DHT22;10676;50.848;3.272;2022-07-12T00:10:40;16.30;99.90
21035;DHT22;10676;50.848;3.272;2022-07-12T00:13:06;16.30;99.90
21035;DHT22;10676;50.848;3.272;2022-07-12T00:15:31;16.20;99.90
21035;DHT22;10676;50.848;3.272;2022-07-12T00:17:57;16.20;99.90
21035;DHT22;10676;50.848;3.272;2022-07-12T00:20:23;16.20;99.90
21035;DHT22;10676;50.848;3.272;2022-07-12T00:22:48;16.20;99.90
21035;DHT22;10676;50.848;3.272;2022-07-12T00:25:14;16.10;99.90
21035;DHT22;10676;50.848;3.272;2022-07-12T00:27:40;16.10;99.90
21035;DHT22;10676;50.848;3.272;2022-07-12T00:30:07;16.10;99.90
21035;DHT22;10676;50.848;3.272;2022-07-12T00:32:33;16.10;99.90
21035;DHT22;10676;50.848;3.272;2022-07-12T00:34:59;16.10;99.90
21035;DHT22;10676;50.848;3.272;2022-07-12T00:37:24;16.10;99.90
21035;DHT22;10676;50.848;3.272;2022-07-12T00:39:51;16.10;99.90
21035;DHT22;10676;50.848;3.272;2022-07-12T00:42:17;16.10;99.90
21035;DHT22;10676;50.848;3.272;2022-07-12T00:44:42;16.10;99.90
21035;DHT22;10676;50.848;3.272;2022-07-12T00:47:28;16.10;99.90
21035;DHT22;10676;50.848;3.272;2022-07-12T00:49:56;16.10;99.90
21035;DHT22;10676;50.848;3.272;2022-07-12T00:52:23;16.00;99.90
21035;DHT22;10676;50.848;3.272;2022-07-12T00:54:49;16.00;99.90
21035;DHT22;10676;50.848;3.272;2022-07-12T00:57:15;16.00;99.90
21035;DHT22;10676;50.848;3.272;2022-07-12T00:59:41;16.00;99.90
21035;DHT22;10676;50.848;3.272;2022-07-12T01:02:07;16.00;99.90
21035;DHT22;10676;50.848;3.272;2022-07-12T01:04:33;15.90;99.90
21035;DHT22;10676;50.848;3.272;2022-07-12T01:06:59;15.90;99.90
21035;DHT22;10676;50.848;3.272;2022-07-12T01:09:25;15.90;99.90
21035;DHT22;10676;50.848;3.272;2022-07-12T01:11:51;15.90;99.90
21035;DHT22;10676;50.848;3.272;2022-07-12T01:14:16;15.90;99.90
21035;DHT22;10676;50.848;3.272;2022-07-12T01:16:42;15.80;99.90
21035;DHT22;10676;50.848;3.272;2022-07-12T01:19:08;15.80;99.90
21035;DHT22;10676;50.848;3.272;2022-07-12T01:21:41;15.80;99.90
21035;DHT22;10676;50.848;3.272;2022-07-12T01:24:08;15.70;99.90
21035;DHT22;10676;50.848;3.272;2022-07-12T01:26:35;15.70;99.90
21035;DHT22;10676;50.848;3.272;2022-07-12T01:29:01;15.70;99.90
21035;DHT22;10676;50.848;3.272;2022-07-12T01:31:27;15.70;99.90
21035;DHT22;10676;50.848;3.272;2022-07-12T01:33:53;15.60;99.90
21035;DHT22;10676;50.848;3.272;2022-07-12T01:36:19;15.60;99.90
21035;DHT22;10676;50.848;3.272;2022-07-12T01:38:44;15.60;99.90
21035;DHT22;10676;50.848;3.272;2022-07-12T01:41:10;15.60;99.90
21035;DHT22;10676;50.848;3.272;2022-07-12T01:43:36;15.50;99.90
21035;DHT22;10676;50.848;3.272;2022-07-12T01:46:01;15.50;99.90
21035;DHT22;10676;50.848;3.272;2022-07-12T01:48:27;15.50;99.90
21035;DHT22;10676;50.848;3.272;2022-07-12T01:50:53;15.50;99.90
21035;DHT22;10676;50.848;3.272;2022-07-12T01:53:19;15.50;99.90
21035;DHT22;10676;50.848;3.272;2022-07-12T01:55:46;15.50;99.90
21035;DHT22;10676;50.848;3.272;2022-07-12T01:58:12;15.40;99.90
21035;DHT22;10676;50.848;3.272;2022-07-12T02:00:39;15.50;99.90
21035;DHT22;10676;50.848;3.272;2022-07-12T02:03:05;15.50;99.90
21035;DHT22;10676;50.848;3.272;2022-07-12T02:05:30;15.50;99.90
21035;DHT22;10676;50.848;3.272;2022-07-12T02:07:56;15.50;99.90
21035;DHT22;10676;50.848;3.272;2022-07-12T02:10:21;15.50;99.90
21035;DHT22;10676;50.848;3.272;2022-07-12T02:12:47;15.50;99.90
21035;DHT22;10676;50.848;3.272;2022-07-12T02:15:13;15.50;99.90
21035;DHT22;10676;50.848;3.272;2022-07-12T02:17:39;15.50;99.90
21035;DHT22;10676;50.848;3.272;2022-07-12T02:20:05;15.40;99.90
21035;DHT22;10676;50.848;3.272;2022-07-12T02:22:30;15.40;99.90
21035;DHT22;10676;50.848;3.272;2022-07-12T02:24:56;15.40;99.90
21035;DHT22;10676;50.848;3.272;2022-07-12T02:27:22;15.40;99.90
21035;DHT22;10676;50.848;3.272;2022-07-12T02:29:47;15.40;99.90
21035;DHT22;10676;50.848;3.272;2022-07-12T02:32:13;15.40;99.90
21035;DHT22;10676;50.848;3.272;2022-07-12T02:34:39;15.40;99.90
21035;DHT22;10676;50.848;3.272;2022-07-12T02:37:05;15.40;99.90
21035;DHT22;10676;50.848;3.272;2022-07-12T02:39:30;15.40;99.90
21035;DHT22;10676;50.848;3.272;2022-07-12T02:41:56;15.40;99.90
21035;DHT22;10676;50.848;3.272;2022-07-12T02:44:21;15.40;99.90
21035;DHT22;10676;50.848;3.272;2022-07-12T02:46:47;15.50;99.90
21035;DHT22;10676;50.848;3.272;2022-07-12T02:49:13;15.40;99.90
21035;DHT22;10676;50.848;3.272;2022-07-12T02:51:39;15.40;99.90
21035;DHT22;10676;50.848;3.272;2022-07-12T02:54:04;15.40;99.90
21035;DHT22;10676;50.848;3.272;2022-07-12T02:56:30;15.40;99.90
21035;DHT22;10676;50.848;3.272;2022-07-12T02:58:55;15.40;99.90
21035;DHT22;10676;50.848;3.272;2022-07-12T03:01:21;15.40;99.90
21035;DHT22;10676;50.848;3.272;2022-07-12T03:03:47;15.40;99.90
21035;DHT22;10676;50.848;3.272;2022-07-12T03:06:12;15.30;99.90
21035;DHT22;10676;50.848;3.272;2022-07-12T03:08:38;15.30;99.90
21035;DHT22;10676;50.848;3.272;2022-07-12T03:11:04;15.30;99.90
21035;DHT22;10676;50.848;3.272;2022-07-12T03:13:29;15.30;99.90
21035;DHT22;10676;50.848;3.272;2022-07-12T03:15:55;15.10;99.90
21035;DHT22;10676;50.848;3.272;2022-07-12T03:18:21;15.30;99.90
21035;DHT22;10676;50.848;3.272;2022-07-12T03:20:47;15.30;99.90
21035;DHT22;10676;50.848;3.272;2022-07-12T03:23:14;15.30;99.90
21035;DHT22;10676;50.848;3.272;2022-07-12T03:25:39;15.20;99.90
21035;DHT22;10676;50.848;3.272;2022-07-12T03:28:05;15.20;99.90
21035;DHT22;10676;50.848;3.272;2022-07-12T03:30:31;15.20;99.90
21035;DHT22;10676;50.848;3.272;2022-07-12T03:32:56;15.20;99.90
21035;DHT22;10676;50.848;3.272;2022-07-12T03:35:22;15.20;99.90
21035;DHT22;10676;50.848;3.272;2022-07-12T03:37:49;15.10;99.90
21035;DHT22;10676;50.848;3.272;2022-07-12T03:40:17;15.10;99.90
21035;DHT22;10676;50.848;3.272;2022-07-12T03:42:43;15.10;99.90
21035;DHT22;10676;50.848;3.272;2022-07-12T03:45:10;15.10;99.90
21035;DHT22;10676;50.848;3.272;2022-07-12T03:47:36;15.10;99.90
21035;DHT22;10676;50.848;3.272;2022-07-12T03:50:07;15.10;99.90
21035;DHT22;10676;50.848;3.272;2022-07-12T03:52:33;15.10;99.90
21035;DHT22;10676;50.848;3.272;2022-07-12T03:55:00;15.10;99.90
21035;DHT22;10676;50.848;3.272;2022-07-12T03:57:27;15.10;99.90
21035;DHT22;10676;50.848;3.272;2022-07-12T03:59:54;15.10;99.90
21035;DHT22;10676;50.848;3.272;2022-07-12T04:02:20;15.10;99.90
21035;DHT22;10676;50.848;3.272;2022-07-12T04:04:46;15.10;99.90
21035;DHT22;10676;50.848;3.272;2022-07-12T04:07:11;15.20;99.90
21035;DHT22;10676;50.848;3.272;2022-07-12T04:09:37;15.20;99.90
21035;DHT22;10676;50.848;3.272;2022-07-12T04:12:03;15.30;99.90
21035;DHT22;10676;50.848;3.272;2022-07-12T04:14:29;15.40;99.90
21035;DHT22;10676;50.848;3.272;2022-07-12T04:16:56;15.60;99.90
21035;DHT22;10676;50.848;3.272;2022-07-12T04:19:21;15.90;99.90
21035;DHT22;10676;50.848;3.272;2022-07-12T04:21:50;16.20;99.90
21035;DHT22;10676;50.848;3.272;2022-07-12T04:24:16;16.50;99.90
21035;DHT22;10676;50.848;3.272;2022-07-12T04:26:42;16.80;99.90
21035;DHT22;10676;50.848;3.272;2022-07-12T04:29:07;17.10;99.90
21035;DHT22;10676;50.848;3.272;2022-07-12T04:31:33;17.50;99.90
21035;DHT22;10676;50.848;3.272;2022-07-12T04:33:59;17.70;99.90
21035;DHT22;10676;50.848;3.272;2022-07-12T04:36:24;17.80;99.90
21035;DHT22;10676;50.848;3.272;2022-07-12T04:38:50;17.80;99.90
21035;DHT22;10676;50.848;3.272;2022-07-12T04:41:16;17.70;99.90
21035;DHT22;10676;50.848;3.272;2022-07-12T04:43:41;17.70;99.90
21035;DHT22;10676;50.848;3.272;2022-07-12T04:46:10;17.70;99.90
21035;DHT22;10676;50.848;3.272;2022-07-12T04:48:36;17.70;99.90
21035;DHT22;10676;50.848;3.272;2022-07-12T04:51:02;17.80;99.90
21035;DHT22;10676;50.848;3.272;2022-07-12T04:53:28;18.00;99.90
21035;DHT22;10676;50.848;3.272;2022-07-12T04:55:55;18.10;99.90
21035;DHT22;10676;50.848;3.272;2022-07-12T04:58:21;18.20;99.90
21035;DHT22;10676;50.848;3.272;2022-07-12T05:00:47;18.20;99.90
21035;DHT22;10676;50.848;3.272;2022-07-12T05:03:13;18.20;99.90
21035;DHT22;10676;50.848;3.272;2022-07-12T05:05:38;18.20;99.90
21035;DHT22;10676;50.848;3.272;2022-07-12T05:08:04;18.10;99.90
21035;DHT22;10676;50.848;3.272;2022-07-12T05:10:30;18.20;99.90
21035;DHT22;10676;50.848;3.272;2022-07-12T05:12:56;18.20;99.90
21035;DHT22;10676;50.848;3.272;2022-07-12T05:15:21;18.20;99.90
21035;DHT22;10676;50.848;3.272;2022-07-12T05:17:47;18.20;99.90
21035;DHT22;10676;50.848;3.272;2022-07-12T05:20:13;18.20;99.90
21035;DHT22;10676;50.848;3.272;2022-07-12T05:22:39;18.30;99.90
21035;DHT22;10676;50.848;3.272;2022-07-12T05:25:07;18.40;99.90
21035;DHT22;10676;50.848;3.272;2022-07-12T05:27:34;18.40;99.90
21035;DHT22;10676;50.848;3.272;2022-07-12T05:30:00;18.50;99.90
21035;DHT22;10676;50.848;3.272;2022-07-12T05:32:25;18.60;99.90
21035;DHT22;10676;50.848;3.272;2022-07-12T05:34:51;18.70;99.90
21035;DHT22;10676;50.848;3.272;2022-07-12T05:37:17;18.90;99.90
21035;DHT22;10676;50.848;3.272;2022-07-12T05:39:42;19.20;99.90
21035;DHT22;10676;50.848;3.272;2022-07-12T05:42:08;19.60;99.90
21035;DHT22;10676;50.848;3.272;2022-07-12T05:44:34;19.90;99.90
21035;DHT22;10676;50.848;3.272;2022-07-12T05:47:00;20.50;99.90
21035;DHT22;10676;50.848;3.272;2022-07-12T05:49:25;21.40;99.90
21035;DHT22;10676;50.848;3.272;2022-07-12T05:51:51;22.60;99.90
21035;DHT22;10676;50.848;3.272;2022-07-12T05:54:35;23.60;99.90
21035;DHT22;10676;50.848;3.272;2022-07-12T05:57:01;24.70;99.90
21035;DHT22;10676;50.848;3.272;2022-07-12T05:59:27;25.90;99.90
21035;DHT22;10676;50.848;3.272;2022-07-12T06:01:54;26.80;99.90
21035;DHT22;10676;50.848;3.272;2022-07-12T06:04:20;27.30;99.90
21035;DHT22;10676;50.848;3.272;2022-07-12T06:06:45;27.60;99.90
21035;DHT22;10676;50.848;3.272;2022-07-12T06:09:11;27.80;99.90
21035;DHT22;10676;50.848;3.272;2022-07-12T06:11:37;28.20;99.90
21035;DHT22;10676;50.848;3.272;2022-07-12T06:14:03;28.60;99.90
21035;DHT22;10676;50.848;3.272;2022-07-12T06:16:28;28.90;99.90
21035;DHT22;10676;50.848;3.272;2022-07-12T06:18:55;29.00;99.90
21035;DHT22;10676;50.848;3.272;2022-07-12T06:21:21;29.10;99.90
21035;DHT22;10676;50.848;3.272;2022-07-12T06:23:46;29.30;99.90
21035;DHT22;10676;50.848;3.272;2022-07-12T06:26:12;29.40;99.90
21035;DHT22;10676;50.848;3.272;2022-07-12T06:28:37;29.30;99.90
21035;DHT22;10676;50.848;3.272;2022-07-12T06:31:03;29.30;99.90
21035;DHT22;10676;50.848;3.272;2022-07-12T06:33:29;29.40;99.90
21035;DHT22;10676;50.848;3.272;2022-07-12T06:35:54;29.90;99.90
21035;DHT22;10676;50.848;3.272;2022-07-12T06:38:20;30.40;99.90
21035;DHT22;10676;50.848;3.272;2022-07-12T06:40:45;31.00;99.90
21035;DHT22;10676;50.848;3.272;2022-07-12T06:43:11;31.50;99.00
21035;DHT22;10676;50.848;3.272;2022-07-12T06:45:38;31.60;97.30
21035;DHT22;10676;50.848;3.272;2022-07-12T06:48:04;31.70;96.30
21035;DHT22;10676;50.848;3.272;2022-07-12T06:50:35;31.80;95.50
21035;DHT22;10676;50.848;3.272;2022-07-12T06:53:01;32.20;94.30
21035;DHT22;10676;50.848;3.272;2022-07-12T06:55:26;32.60;93.10
21035;DHT22;10676;50.848;3.272;2022-07-12T06:57:52;33.20;91.60
21035;DHT22;10676;50.848;3.272;2022-07-12T07:00:17;34.00;88.20
21035;DHT22;10676;50.848;3.272;2022-07-12T07:02:43;34.50;84.40
21035;DHT22;10676;50.848;3.272;2022-07-12T07:05:09;34.70;82.20
21035;DHT22;10676;50.848;3.272;2022-07-12T07:07:36;34.80;79.30
21035;DHT22;10676;50.848;3.272;2022-07-12T07:10:02;34.90;77.40
21035;DHT22;10676;50.848;3.272;2022-07-12T07:12:28;35.00;76.30
21035;DHT22;10676;50.848;3.272;2022-07-12T07:14:53;35.40;74.10
21035;DHT22;10676;50.848;3.272;2022-07-12T07:17:19;36.20;71.40
21035;DHT22;10676;50.848;3.272;2022-07-12T07:19:45;37.20;67.50
21035;DHT22;10676;50.848;3.272;2022-07-12T07:22:12;37.90;64.40
21035;DHT22;10676;50.848;3.272;2022-07-12T07:24:38;38.60;61.30
21035;DHT22;10676;50.848;3.272;2022-07-12T07:27:04;39.20;58.10
21035;DHT22;10676;50.848;3.272;2022-07-12T07:29:30;39.70;56.60
21035;DHT22;10676;50.848;3.272;2022-07-12T07:32:14;40.10;55.00
21035;DHT22;10676;50.848;3.272;2022-07-12T07:34:40;40.20;53.40
21035;DHT22;10676;50.848;3.272;2022-07-12T07:37:07;40.40;52.70
21035;DHT22;10676;50.848;3.272;2022-07-12T07:39:33;40.60;51.60
21035;DHT22;10676;50.848;3.272;2022-07-12T07:41:59;40.70;49.80
21035;DHT22;10676;50.848;3.272;2022-07-12T07:44:25;40.90;49.30
21035;DHT22;10676;50.848;3.272;2022-07-12T07:46:50;41.00;47.90
21035;DHT22;10676;50.848;3.272;2022-07-12T07:49:16;41.20;47.60
21035;DHT22;10676;50.848;3.272;2022-07-12T07:51:42;41.40;47.00
21035;DHT22;10676;50.848;3.272;2022-07-12T07:54:07;41.60;45.90
21035;DHT22;10676;50.848;3.272;2022-07-12T07:56:33;41.40;46.10
21035;DHT22;10676;50.848;3.272;2022-07-12T07:58:58;41.30;46.30
21035;DHT22;10676;50.848;3.272;2022-07-12T08:01:24;41.10;45.60
21035;DHT22;10676;50.848;3.272;2022-07-12T08:04:09;40.90;45.80
21035;DHT22;10676;50.848;3.272;2022-07-12T08:06:35;40.80;44.90
21035;DHT22;10676;50.848;3.272;2022-07-12T08:09:01;40.80;45.10
21035;DHT22;10676;50.848;3.272;2022-07-12T08:11:26;41.00;44.80
21035;DHT22;10676;50.848;3.272;2022-07-12T08:13:52;41.10;44.00
21035;DHT22;10676;50.848;3.272;2022-07-12T08:16:18;41.10;43.90
21035;DHT22;10676;50.848;3.272;2022-07-12T08:18:43;41.20;44.00
21035;DHT22;10676;50.848;3.272;2022-07-12T08:21:09;41.30;43.80
21035;DHT22;10676;50.848;3.272;2022-07-12T08:23:34;41.30;43.90
21035;DHT22;10676;50.848;3.272;2022-07-12T08:26:00;41.10;43.80
21035;DHT22;10676;50.848;3.272;2022-07-12T08:28:26;41.20;44.00
21035;DHT22;10676;50.848;3.272;2022-07-12T08:30:51;41.30;42.20
21035;DHT22;10676;50.848;3.272;2022-07-12T08:33:17;41.20;41.60
21035;DHT22;10676;50.848;3.272;2022-07-12T08:35:42;40.90;41.90
21035;DHT22;10676;50.848;3.272;2022-07-12T08:38:08;40.90;41.50
21035;DHT22;10676;50.848;3.272;2022-07-12T08:40:36;41.10;40.40
21035;DHT22;10676;50.848;3.272;2022-07-12T08:43:01;41.40;40.40
21035;DHT22;10676;50.848;3.272;2022-07-12T08:45:28;41.80;40.50
21035;DHT22;10676;50.848;3.272;2022-07-12T08:47:54;42.10;40.30
21035;DHT22;10676;50.848;3.272;2022-07-12T08:50:21;41.90;40.50
21035;DHT22;10676;50.848;3.272;2022-07-12T08:52:52;41.70;40.10
21035;DHT22;10676;50.848;3.272;2022-07-12T08:55:38;41.70;40.70
21035;DHT22;10676;50.848;3.272;2022-07-12T08:58:05;42.00;40.60
21035;DHT22;10676;50.848;3.272;2022-07-12T09:00:39;41.70;39.10
21035;DHT22;10676;50.848;3.272;2022-07-12T09:03:05;42.10;37.50
21035;DHT22;10676;50.848;3.272;2022-07-12T09:05:33;42.30;37.40
21035;DHT22;10676;50.848;3.272;2022-07-12T09:08:04;42.20;37.50
21035;DHT22;10676;50.848;3.272;2022-07-12T09:10:31;42.00;37.60
21035;DHT22;10676;50.848;3.272;2022-07-12T09:12:57;41.90;38.90
21035;DHT22;10676;50.848;3.272;2022-07-12T09:15:24;42.00;37.50
21035;DHT22;10676;50.848;3.272;2022-07-12T09:18:00;42.20;37.40
21035;DHT22;10676;50.848;3.272;2022-07-12T09:20:32;42.60;37.40
21035;DHT22;10676;50.848;3.272;2022-07-12T09:23:01;42.90;36.50
21035;DHT22;10676;50.848;3.272;2022-07-12T09:25:28;43.30;36.30
21035;DHT22;10676;50.848;3.272;2022-07-12T09:27:56;43.60;36.10
21035;DHT22;10676;50.848;3.272;2022-07-12T09:30:23;44.10;35.30
21035;DHT22;10676;50.848;3.272;2022-07-12T09:32:53;44.30;33.90
21035;DHT22;10676;50.848;3.272;2022-07-12T09:35:39;44.50;33.80
21035;DHT22;10676;50.848;3.272;2022-07-12T09:38:24;44.70;35.00
21035;DHT22;10676;50.848;3.272;2022-07-12T09:40:50;45.10;33.80
21035;DHT22;10676;50.848;3.272;2022-07-12T09:43:17;45.40;33.80
21035;DHT22;10676;50.848;3.272;2022-07-12T09:45:42;45.50;32.90
21035;DHT22;10676;50.848;3.272;2022-07-12T09:48:09;45.60;31.50
21035;DHT22;10676;50.848;3.272;2022-07-12T09:50:37;45.60;31.20
21035;DHT22;10676;50.848;3.272;2022-07-12T09:53:03;45.60;31.10
21035;DHT22;10676;50.848;3.272;2022-07-12T09:55:30;45.70;31.10
21035;DHT22;10676;50.848;3.272;2022-07-12T09:58:01;45.60;31.90
21035;DHT22;10676;50.848;3.272;2022-07-12T10:00:28;45.50;31.10
21035;DHT22;10676;50.848;3.272;2022-07-12T10:02:55;45.40;31.50
21035;DHT22;10676;50.848;3.272;2022-07-12T10:05:24;45.40;31.20
21035;DHT22;10676;50.848;3.272;2022-07-12T10:07:51;45.20;31.00
21035;DHT22;10676;50.848;3.272;2022-07-12T10:10:17;45.10;30.60
21035;DHT22;10676;50.848;3.272;2022-07-12T10:12:43;45.20;30.00
21035;DHT22;10676;50.848;3.272;2022-07-12T10:15:14;45.20;30.00
21035;DHT22;10676;50.848;3.272;2022-07-12T10:17:41;45.50;29.80
21035;DHT22;10676;50.848;3.272;2022-07-12T10:20:25;45.60;29.70
21035;DHT22;10676;50.848;3.272;2022-07-12T10:25:53;45.30;30.50
21035;DHT22;10676;50.848;3.272;2022-07-12T10:28:19;44.90;29.10
21035;DHT22;10676;50.848;3.272;2022-07-12T10:30:46;44.70;28.70
21035;DHT22;10676;50.848;3.272;2022-07-12T10:33:23;44.40;29.20
21035;DHT22;10676;50.848;3.272;2022-07-12T10:36:05;44.30;30.50
21035;DHT22;10676;50.848;3.272;2022-07-12T10:38:32;44.00;30.80
21035;DHT22;10676;50.848;3.272;2022-07-12T10:41:19;43.90;29.20
21035;DHT22;10676;50.848;3.272;2022-07-12T10:43:45;43.90;29.80
21035;DHT22;10676;50.848;3.272;2022-07-12T10:46:30;43.70;30.70
21035;DHT22;10676;50.848;3.272;2022-07-12T10:49:28;43.60;30.90
21035;DHT22;10676;50.848;3.272;2022-07-12T10:52:12;43.60;31.00
21035;DHT22;10676;50.848;3.272;2022-07-12T10:57:05;43.60;31.50
21035;DHT22;10676;50.848;3.272;2022-07-12T10:59:36;43.60;30.50
21035;DHT22;10676;50.848;3.272;2022-07-12T11:02:03;43.70;29.90
21035;DHT22;10676;50.848;3.272;2022-07-12T11:04:29;43.80;30.00
21035;DHT22;10676;50.848;3.272;2022-07-12T11:06:55;43.90;27.60
21035;DHT22;10676;50.848;3.272;2022-07-12T11:09:24;43.90;27.10
21035;DHT22;10676;50.848;3.272;2022-07-12T11:11:51;43.70;26.90
21035;DHT22;10676;50.848;3.272;2022-07-12T11:16:51;43.60;28.40
21035;DHT22;10676;50.848;3.272;2022-07-12T11:19:23;43.60;28.10
21035;DHT22;10676;50.848;3.272;2022-07-12T11:21:50;43.60;28.20
21035;DHT22;10676;50.848;3.272;2022-07-12T11:24:26;43.70;27.80
21035;DHT22;10676;50.848;3.272;2022-07-12T11:26:53;43.90;27.40
21035;DHT22;10676;50.848;3.272;2022-07-12T11:29:19;44.00;26.00
21035;DHT22;10676;50.848;3.272;2022-07-12T11:31:45;43.90;26.40
21035;DHT22;10676;50.848;3.272;2022-07-12T11:34:25;43.90;26.40
21035;DHT22;10676;50.848;3.272;2022-07-12T11:36:56;44.10;27.20
21035;DHT22;10676;50.848;3.272;2022-07-12T11:39:36;44.40;27.30
21035;DHT22;10676;50.848;3.272;2022-07-12T11:42:03;44.70;25.90
21035;DHT22;10676;50.848;3.272;2022-07-12T11:44:49;44.70;25.90
21035;DHT22;10676;50.848;3.272;2022-07-12T11:47:20;44.70;27.60
21035;DHT22;10676;50.848;3.272;2022-07-12T11:49:47;44.40;27.60
21035;DHT22;10676;50.848;3.272;2022-07-12T11:52:18;44.30;27.80
21035;DHT22;10676;50.848;3.272;2022-07-12T11:54:45;44.50;28.10
21035;DHT22;10676;50.848;3.272;2022-07-12T11:57:12;44.90;28.10
21035;DHT22;10676;50.848;3.272;2022-07-12T11:59:38;45.20;28.30
21035;DHT22;10676;50.848;3.272;2022-07-12T12:02:05;45.20;27.80
21035;DHT22;10676;50.848;3.272;2022-07-12T12:04:31;45.10;28.40
21035;DHT22;10676;50.848;3.272;2022-07-12T12:06:57;44.90;28.40
21035;DHT22;10676;50.848;3.272;2022-07-12T12:09:22;44.70;29.00
21035;DHT22;10676;50.848;3.272;2022-07-12T12:11:48;44.30;29.30
21035;DHT22;10676;50.848;3.272;2022-07-12T12:14:13;44.20;28.20
21035;DHT22;10676;50.848;3.272;2022-07-12T12:16:39;44.20;28.30
21035;DHT22;10676;50.848;3.272;2022-07-12T12:19:10;44.00;29.20
21035;DHT22;10676;50.848;3.272;2022-07-12T12:21:36;44.00;28.50
21035;DHT22;10676;50.848;3.272;2022-07-12T12:24:11;44.00;28.70
21035;DHT22;10676;50.848;3.272;2022-07-12T12:26:37;44.00;27.60
21035;DHT22;10676;50.848;3.272;2022-07-12T12:29:03;43.80;27.60
21035;DHT22;10676;50.848;3.272;2022-07-12T12:31:28;43.60;27.90
21035;DHT22;10676;50.848;3.272;2022-07-12T12:33:55;43.60;28.90
21035;DHT22;10676;50.848;3.272;2022-07-12T12:36:28;43.50;29.00
21035;DHT22;10676;50.848;3.272;2022-07-12T12:38:56;43.50;28.80
21035;DHT22;10676;50.848;3.272;2022-07-12T12:41:24;43.60;28.40
21035;DHT22;10676;50.848;3.272;2022-07-12T12:43:57;43.70;28.10
21035;DHT22;10676;50.848;3.272;2022-07-12T12:46:46;43.80;26.80
21035;DHT22;10676;50.848;3.272;2022-07-12T12:49:12;43.90;27.60
21035;DHT22;10676;50.848;3.272;2022-07-12T12:51:55;44.10;25.50
21035;DHT22;10676;50.848;3.272;2022-07-12T12:54:37;44.30;26.20
21035;DHT22;10676;50.848;3.272;2022-07-12T12:57:05;44.30;25.10
21035;DHT22;10676;50.848;3.272;2022-07-12T12:59:31;44.20;25.40
21035;DHT22;10676;50.848;3.272;2022-07-12T13:01:57;44.00;26.60
21035;DHT22;10676;50.848;3.272;2022-07-12T13:04:22;43.90;26.90
21035;DHT22;10676;50.848;3.272;2022-07-12T13:06:52;43.90;26.90
21035;DHT22;10676;50.848;3.272;2022-07-12T13:09:18;43.80;26.60
21035;DHT22;10676;50.848;3.272;2022-07-12T13:11:47;43.70;26.90
21035;DHT22;10676;50.848;3.272;2022-07-12T13:14:13;43.70;26.50
21035;DHT22;10676;50.848;3.272;2022-07-12T13:16:39;43.90;26.70
21035;DHT22;10676;50.848;3.272;2022-07-12T13:19:05;44.00;26.70
21035;DHT22;10676;50.848;3.272;2022-07-12T13:21:31;44.20;26.50
21035;DHT22;10676;50.848;3.272;2022-07-12T13:23:56;44.30;25.70
21035;DHT22;10676;50.848;3.272;2022-07-12T13:26:22;44.70;25.50
21035;DHT22;10676;50.848;3.272;2022-07-12T13:28:48;44.90;25.60
21035;DHT22;10676;50.848;3.272;2022-07-12T13:31:13;45.10;25.10
21035;DHT22;10676;50.848;3.272;2022-07-12T13:33:39;45.30;25.60
21035;DHT22;10676;50.848;3.272;2022-07-12T13:36:05;45.50;25.80
21035;DHT22;10676;50.848;3.272;2022-07-12T13:38:31;45.60;25.10
21035;DHT22;10676;50.848;3.272;2022-07-12T13:40:56;45.60;24.40
21035;DHT22;10676;50.848;3.272;2022-07-12T13:43:22;45.80;24.20
21035;DHT22;10676;50.848;3.272;2022-07-12T13:45:51;46.10;24.60
21035;DHT22;10676;50.848;3.272;2022-07-12T13:48:17;46.20;25.00
21035;DHT22;10676;50.848;3.272;2022-07-12T13:50:46;46.40;25.30
21035;DHT22;10676;50.848;3.272;2022-07-12T13:53:13;46.40;25.00
21035;DHT22;10676;50.848;3.272;2022-07-12T13:55:42;46.40;25.80
21035;DHT22;10676;50.848;3.272;2022-07-12T13:58:08;46.30;24.00
21035;DHT22;10676;50.848;3.272;2022-07-12T14:00:34;46.20;25.10
21035;DHT22;10676;50.848;3.272;2022-07-12T14:03:00;46.10;24.90
21035;DHT22;10676;50.848;3.272;2022-07-12T14:05:25;46.00;24.60
21035;DHT22;10676;50.848;3.272;2022-07-12T14:07:51;45.80;25.50
21035;DHT22;10676;50.848;3.272;2022-07-12T14:10:17;45.60;25.50
21035;DHT22;10676;50.848;3.272;2022-07-12T14:12:43;45.30;25.70
21035;DHT22;10676;50.848;3.272;2022-07-12T14:15:10;45.00;25.90
21035;DHT22;10676;50.848;3.272;2022-07-12T14:17:51;44.80;25.10
21035;DHT22;10676;50.848;3.272;2022-07-12T14:20:20;44.40;26.10
21035;DHT22;10676;50.848;3.272;2022-07-12T14:22:47;44.10;26.50
21035;DHT22;10676;50.848;3.272;2022-07-12T14:25:13;43.80;26.10
21035;DHT22;10676;50.848;3.272;2022-07-12T14:27:40;43.50;27.10
21035;DHT22;10676;50.848;3.272;2022-07-12T14:30:09;43.30;26.50
21035;DHT22;10676;50.848;3.272;2022-07-12T14:32:35;42.80;26.40
21035;DHT22;10676;50.848;3.272;2022-07-12T14:35:01;42.60;26.50
21035;DHT22;10676;50.848;3.272;2022-07-12T14:37:27;42.30;27.20
21035;DHT22;10676;50.848;3.272;2022-07-12T14:39:53;42.20;27.00
21035;DHT22;10676;50.848;3.272;2022-07-12T14:42:18;42.20;26.60
21035;DHT22;10676;50.848;3.272;2022-07-12T14:44:45;42.20;29.10
21035;DHT22;10676;50.848;3.272;2022-07-12T14:47:11;42.20;27.20
21035;DHT22;10676;50.848;3.272;2022-07-12T14:49:37;42.20;27.60
21035;DHT22;10676;50.848;3.272;2022-07-12T14:52:04;42.00;26.50
21035;DHT22;10676;50.848;3.272;2022-07-12T14:54:31;41.90;28.70
21035;DHT22;10676;50.848;3.272;2022-07-12T14:56:57;41.90;27.50
21035;DHT22;10676;50.848;3.272;2022-07-12T14:59:23;41.80;26.70
21035;DHT22;10676;50.848;3.272;2022-07-12T15:01:48;41.80;28.40
21035;DHT22;10676;50.848;3.272;2022-07-12T15:04:15;41.60;27.80
21035;DHT22;10676;50.848;3.272;2022-07-12T15:06:41;41.50;27.70
21035;DHT22;10676;50.848;3.272;2022-07-12T15:09:06;41.50;30.50
21035;DHT22;10676;50.848;3.272;2022-07-12T15:11:32;41.60;27.30
21035;DHT22;10676;50.848;3.272;2022-07-12T15:13:58;41.70;27.40
21035;DHT22;10676;50.848;3.272;2022-07-12T15:16:23;41.90;27.10
21035;DHT22;10676;50.848;3.272;2022-07-12T15:18:49;42.20;27.20
21035;DHT22;10676;50.848;3.272;2022-07-12T15:21:15;42.60;27.50
21035;DHT22;10676;50.848;3.272;2022-07-12T15:23:41;42.90;27.50
21035;DHT22;10676;50.848;3.272;2022-07-12T15:26:07;43.10;26.70
21035;DHT22;10676;50.848;3.272;2022-07-12T15:28:32;43.20;26.20
21035;DHT22;10676;50.848;3.272;2022-07-12T15:30:59;43.20;27.10
21035;DHT22;10676;50.848;3.272;2022-07-12T15:33:25;43.20;26.80
21035;DHT22;10676;50.848;3.272;2022-07-12T15:35:51;43.20;27.00
21035;DHT22;10676;50.848;3.272;2022-07-12T15:38:17;43.30;27.20